createdAt,value
2022-12-20T00:01:53.622Z,8.74
2022-12-20T00:04:21.397Z,8.70
2022-12-20T00:06:49.077Z,8.66
2022-12-20T00:09:16.703Z,8.64
2022-12-20T00:11:44.428Z,8.62
2022-12-20T00:14:12.379Z,8.60
2022-12-20T00:16:41.482Z,8.61
2022-12-20T00:19:10.828Z,8.60
2022-12-20T00:21:39.013Z,8.64
2022-12-20T00:24:07.941Z,8.68
2022-12-20T00:26:36.808Z,8.77
2022-12-20T00:29:05.141Z,8.86
2022-12-20T00:31:33.877Z,8.94
2022-12-20T00:34:03.358Z,9.00
2022-12-20T00:36:33.224Z,9.02
2022-12-20T00:39:01.631Z,9.05
2022-12-20T00:41:32.288Z,9.08
2022-12-20T00:44:00.375Z,9.10
2022-12-20T00:46:28.676Z,9.14
2022-12-20T00:48:57.704Z,9.15
2022-12-20T00:51:28.640Z,9.18
2022-12-20T00:53:56.563Z,9.21
2022-12-20T00:56:25.842Z,9.25
2022-12-20T00:58:58.711Z,9.25
2022-12-20T01:01:30.382Z,9.26
2022-12-20T01:03:58.694Z,9.26
2022-12-20T01:06:28.147Z,9.27
2022-12-20T01:08:56.912Z,9.27
2022-12-20T01:11:26.518Z,9.28
2022-12-20T01:13:56.948Z,9.28
2022-12-20T01:16:26.797Z,9.31
2022-12-20T01:18:55.341Z,9.33
2022-12-20T01:21:26.165Z,9.35
2022-12-20T01:23:55.701Z,9.40
2022-12-20T01:26:25.749Z,9.40
2022-12-20T01:28:56.155Z,9.44
2022-12-20T01:31:24.602Z,9.47
2022-12-20T01:33:53.430Z,9.47
2022-12-20T01:36:25.071Z,9.49
2022-12-20T01:38:58.749Z,9.48
2022-12-20T01:41:27.745Z,9.45
2022-12-20T01:43:57.580Z,9.42
2022-12-20T01:46:27.295Z,9.41
2022-12-20T01:48:59.552Z,9.41
2022-12-20T01:51:30.195Z,9.43
2022-12-20T01:54:05.121Z,9.46
2022-12-20T01:56:33.029Z,9.52
2022-12-20T01:59:01.996Z,9.58
2022-12-20T02:18:11.616Z,9.70
2022-12-20T02:20:56.044Z,9.71
2022-12-20T02:24:17.302Z,9.71
2022-12-20T02:27:08.689Z,9.71
2022-12-20T02:29:39.464Z,9.72
2022-12-20T02:32:13.867Z,9.72
2022-12-20T02:34:42.992Z,9.75
2022-12-20T02:37:11.085Z,9.73
2022-12-20T02:39:41.300Z,9.71
2022-12-20T02:42:11.194Z,9.70
2022-12-20T02:45:00.200Z,9.65
2022-12-20T02:47:34.804Z,9.61
2022-12-20T02:50:04.614Z,9.56
2022-12-20T02:52:33.126Z,9.49
2022-12-20T02:55:01.561Z,9.43
2022-12-20T02:57:39.306Z,9.37
2022-12-20T03:00:11.632Z,9.38
2022-12-20T03:02:59.969Z,9.37
2022-12-20T03:05:28.928Z,9.38
2022-12-20T03:07:56.698Z,9.42
2022-12-20T03:10:26.403Z,9.46
2022-12-20T03:12:54.161Z,9.49
2022-12-20T03:15:21.929Z,9.54
2022-12-20T03:17:54.670Z,9.57
2022-12-20T03:20:23.313Z,9.63
2022-12-20T03:22:51.159Z,9.68
2022-12-20T03:25:19.335Z,9.72
2022-12-20T03:27:47.124Z,9.74
2022-12-20T03:30:15.878Z,9.77
2022-12-20T03:32:43.695Z,9.79
2022-12-20T03:35:13.916Z,9.79
2022-12-20T03:37:42.572Z,9.77
2022-12-20T03:40:12.317Z,9.77
2022-12-20T03:42:40.383Z,9.74
2022-12-20T03:45:09.162Z,9.72
2022-12-20T03:47:36.871Z,9.72
2022-12-20T03:50:05.407Z,9.72
2022-12-20T03:52:37.062Z,9.76
2022-12-20T03:55:06.874Z,9.76
2022-12-20T03:57:41.708Z,9.76
2022-12-20T04:00:23.323Z,9.80
2022-12-20T04:02:54.610Z,9.81
2022-12-20T04:05:23.153Z,9.84
2022-12-20T04:07:52.973Z,9.89
2022-12-20T04:10:20.807Z,9.91
2022-12-20T04:12:48.898Z,9.94
2022-12-20T04:15:17.672Z,9.97
2022-12-20T04:17:46.814Z,9.99
2022-12-20T04:20:22.225Z,10.03
2022-12-20T04:23:02.634Z,10.06
2022-12-20T04:25:30.752Z,10.06
2022-12-20T04:27:58.512Z,10.08
2022-12-20T04:30:26.243Z,10.09
2022-12-20T04:32:54.730Z,10.10
2022-12-20T04:35:23.052Z,10.09
2022-12-20T04:37:50.851Z,10.08
2022-12-20T04:40:20.271Z,10.10
2022-12-20T04:42:52.084Z,10.06
2022-12-20T04:45:20.385Z,10.03
2022-12-20T04:47:48.973Z,10.00
2022-12-20T04:50:21.561Z,9.99
2022-12-20T04:53:06.680Z,9.97
2022-12-20T04:55:39.966Z,9.95
2022-12-20T04:58:08.068Z,9.93
2022-12-20T05:00:38.536Z,9.91
2022-12-20T05:03:18.390Z,9.92
2022-12-20T05:05:46.220Z,9.91
2022-12-20T05:08:14.209Z,9.90
2022-12-20T05:10:43.792Z,9.89
2022-12-20T05:13:11.980Z,9.90
2022-12-20T05:15:43.376Z,9.89
2022-12-20T05:18:12.137Z,9.88
2022-12-20T05:21:10.691Z,9.86
2022-12-20T05:23:57.043Z,9.88
2022-12-20T05:26:31.298Z,9.88
2022-12-20T05:28:59.176Z,9.90
2022-12-20T05:31:28.080Z,9.90
2022-12-20T05:33:56.411Z,9.90
2022-12-20T05:36:27.212Z,9.91
2022-12-20T05:39:03.614Z,9.91
2022-12-20T05:41:34.751Z,9.89
2022-12-20T05:44:03.459Z,9.89
2022-12-20T05:46:34.447Z,9.89
2022-12-20T05:49:06.029Z,9.86
2022-12-20T05:51:34.596Z,9.85
2022-12-20T05:54:09.420Z,9.84
2022-12-20T05:56:50.359Z,9.79
2022-12-20T05:59:22.178Z,9.79
2022-12-20T06:01:50.072Z,9.78
2022-12-20T06:04:18.231Z,9.75
2022-12-20T06:06:47.413Z,9.73
2022-12-20T06:09:18.996Z,9.69
2022-12-20T06:11:56.248Z,9.64
2022-12-20T06:14:24.076Z,9.59
2022-12-20T06:16:53.663Z,9.55
2022-12-20T06:19:22.028Z,9.53
2022-12-20T06:21:52.898Z,9.51
2022-12-20T06:24:27.359Z,9.50
2022-12-20T06:26:56.902Z,9.49
2022-12-20T06:29:26.624Z,9.46
2022-12-20T06:32:06.149Z,9.42
2022-12-20T06:34:34.034Z,9.42
2022-12-20T06:37:02.544Z,9.43
2022-12-20T06:39:33.770Z,9.45
2022-12-20T06:42:07.210Z,9.46
2022-12-20T06:44:36.643Z,9.48
2022-12-20T06:47:04.626Z,9.49
2022-12-20T06:49:32.392Z,9.49
2022-12-20T06:52:00.372Z,9.49
2022-12-20T06:54:46.846Z,9.51
2022-12-20T06:57:16.117Z,9.51
2022-12-20T06:59:47.036Z,9.51
2022-12-20T07:02:15.004Z,9.54
2022-12-20T07:04:42.860Z,9.53
2022-12-20T07:07:10.730Z,9.52
2022-12-20T07:09:41.267Z,9.52
2022-12-20T07:12:09.769Z,9.50
2022-12-20T07:14:38.868Z,9.49
2022-12-20T07:17:07.416Z,9.48
2022-12-20T07:19:36.137Z,9.47
2022-12-20T07:22:05.568Z,9.47
2022-12-20T07:24:33.373Z,9.45
2022-12-20T07:27:01.246Z,9.44
2022-12-20T07:29:29.522Z,9.44
2022-12-20T07:31:58.623Z,9.45
2022-12-20T07:34:26.414Z,9.43
2022-12-20T07:36:54.077Z,9.43
2022-12-20T07:39:21.754Z,9.41
2022-12-20T07:41:49.526Z,9.40
2022-12-20T07:44:17.986Z,9.41
2022-12-20T07:46:46.066Z,9.39
2022-12-20T07:49:15.634Z,9.41
2022-12-20T07:51:46.803Z,9.42
2022-12-20T07:54:18.969Z,9.43
2022-12-20T07:56:51.361Z,9.45
2022-12-20T07:59:25.255Z,9.49
2022-12-20T08:01:53.890Z,9.49
2022-12-20T08:04:27.965Z,9.50
2022-12-20T08:06:59.001Z,9.51
2022-12-20T08:09:30.407Z,9.54
2022-12-20T08:12:00.092Z,9.55
2022-12-20T08:14:28.295Z,9.56
2022-12-20T08:16:56.073Z,9.59
2022-12-20T08:19:31.790Z,9.62
2022-12-20T08:22:00.102Z,9.63
2022-12-20T08:24:27.803Z,9.64
2022-12-20T08:26:55.465Z,9.68
2022-12-20T08:29:23.232Z,9.71
2022-12-20T08:31:51.140Z,9.73
2022-12-20T08:34:18.963Z,9.77
2022-12-20T08:36:48.016Z,9.78
2022-12-20T08:39:15.808Z,9.81
2022-12-20T08:41:43.506Z,9.83
2022-12-20T08:44:11.206Z,9.89
2022-12-20T08:46:39.073Z,9.95
2022-12-20T08:49:07.038Z,10.06
2022-12-20T08:51:34.849Z,10.16
2022-12-20T08:54:04.111Z,10.29
2022-12-20T08:56:32.110Z,10.37
2022-12-20T08:58:59.860Z,10.41
2022-12-20T09:01:30.270Z,10.42
2022-12-20T09:03:58.146Z,10.43
2022-12-20T09:06:26.234Z,10.47
2022-12-20T09:08:55.575Z,10.56
2022-12-20T09:11:27.294Z,10.61
2022-12-20T09:13:57.766Z,10.66
2022-12-20T09:16:27.829Z,10.65
2022-12-20T09:19:04.306Z,10.64
2022-12-20T09:21:33.153Z,10.64
2022-12-20T09:24:00.850Z,10.67
2022-12-20T09:26:30.563Z,10.74
2022-12-20T09:28:59.267Z,10.81
2022-12-20T09:31:27.498Z,10.88
2022-12-20T09:33:57.872Z,10.98
2022-12-20T09:36:27.937Z,11.02
2022-12-20T09:38:56.396Z,11.01
2022-12-20T09:41:30.664Z,10.98
2022-12-20T09:44:04.985Z,10.94
2022-12-20T09:46:33.203Z,10.90
2022-12-20T09:49:01.170Z,10.86
2022-12-20T09:51:43.534Z,10.83
2022-12-20T09:54:21.320Z,10.79
2022-12-20T09:56:57.970Z,10.80
2022-12-20T09:59:27.248Z,10.85
2022-12-20T10:01:55.051Z,10.88
2022-12-20T10:04:25.748Z,10.92
2022-12-20T10:07:15.538Z,11.00
2022-12-20T10:10:09.399Z,11.02
2022-12-20T10:12:46.717Z,11.09
2022-12-20T10:15:22.049Z,11.24
2022-12-20T10:18:10.647Z,11.43
2022-12-20T10:20:47.303Z,11.61
2022-12-20T10:23:27.929Z,11.75
2022-12-20T10:26:00.321Z,11.82
2022-12-20T10:28:30.554Z,11.91
2022-12-20T10:31:03.684Z,11.99
2022-12-20T10:33:32.716Z,12.03
2022-12-20T10:36:18.828Z,12.05
2022-12-20T10:38:49.241Z,12.03
2022-12-20T10:41:22.416Z,11.98
2022-12-20T10:43:56.237Z,11.97
2022-12-20T10:46:36.882Z,11.96
2022-12-20T10:49:32.604Z,12.07
2022-12-20T10:52:03.548Z,12.10
2022-12-20T10:54:34.835Z,12.11
2022-12-20T10:57:14.453Z,12.00
2022-12-20T10:59:46.890Z,11.87
2022-12-20T11:02:33.237Z,11.87
2022-12-20T11:05:23.222Z,11.96
2022-12-20T11:10:45.644Z,11.96
2022-12-20T11:13:22.549Z,11.99
2022-12-20T11:15:54.720Z,12.05
2022-12-20T11:18:33.088Z,12.02
2022-12-20T11:21:16.121Z,12.01
2022-12-20T11:23:49.402Z,11.93
2022-12-20T11:26:34.277Z,11.88
2022-12-20T11:29:18.558Z,11.77
2022-12-20T11:31:56.225Z,11.80
2022-12-20T11:34:38.524Z,11.80
2022-12-20T11:37:20.081Z,11.73
2022-12-20T11:40:13.109Z,11.68
2022-12-20T11:42:53.827Z,11.79
2022-12-20T11:45:29.925Z,11.89
2022-12-20T11:48:34.835Z,11.92
2022-12-20T11:51:25.888Z,11.88
2022-12-20T11:54:01.295Z,11.81
2022-12-20T11:56:40.139Z,11.77
2022-12-20T11:59:19.732Z,11.82
2022-12-20T12:01:53.053Z,11.87
2022-12-20T12:04:23.795Z,11.87
2022-12-20T12:06:59.379Z,11.89
2022-12-20T12:09:33.847Z,11.94
2022-12-20T12:12:07.789Z,12.04
2022-12-20T12:14:47.498Z,12.13
2022-12-20T12:17:22.140Z,12.13
2022-12-20T12:19:51.618Z,12.13
2022-12-20T12:22:28.283Z,12.15
2022-12-20T12:25:01.681Z,12.12
2022-12-20T12:27:29.466Z,12.07
2022-12-20T12:29:59.537Z,12.03
2022-12-20T12:32:33.320Z,12.01
2022-12-20T12:35:17.159Z,12.03
2022-12-20T12:37:56.541Z,12.01
2022-12-20T12:40:59.714Z,11.95
2022-12-20T12:43:45.517Z,11.92
2022-12-20T12:46:16.368Z,11.89
2022-12-20T12:48:49.858Z,11.93
2022-12-20T12:51:25.995Z,12.00
2022-12-20T12:54:02.692Z,11.97
2022-12-20T12:56:43.931Z,12.00
2022-12-20T12:59:40.949Z,12.10
2022-12-20T13:02:25.692Z,12.11
2022-12-20T13:04:56.063Z,12.07
2022-12-20T13:07:29.266Z,12.04
2022-12-20T13:09:58.438Z,12.00
2022-12-20T13:12:58.667Z,11.99
2022-12-20T13:15:49.044Z,11.95
2022-12-20T13:18:24.604Z,11.96
2022-12-20T13:21:39.050Z,11.92
2022-12-20T13:24:56.160Z,11.89
2022-12-20T13:27:36.634Z,11.88
2022-12-20T13:30:28.924Z,11.92
2022-12-20T13:33:39.534Z,11.99
2022-12-20T13:36:34.450Z,12.01
2022-12-20T13:39:05.419Z,12.05
2022-12-20T13:41:42.581Z,12.00
2022-12-20T13:44:41.099Z,12.00
2022-12-20T13:47:30.802Z,12.04
2022-12-20T13:50:02.798Z,12.01
2022-12-20T13:52:32.526Z,11.99
2022-12-20T13:55:02.991Z,12.01
2022-12-20T13:57:34.044Z,12.02
2022-12-20T14:00:07.975Z,12.03
2022-12-20T14:02:41.274Z,12.06
2022-12-20T14:05:17.684Z,12.10
2022-12-20T14:07:48.861Z,12.10
2022-12-20T14:10:23.849Z,12.08
2022-12-20T14:12:52.146Z,12.07
2022-12-20T14:15:26.627Z,12.06
2022-12-20T14:17:54.503Z,12.04
2022-12-20T14:20:27.251Z,12.04
2022-12-20T14:23:04.495Z,12.04
2022-12-20T14:25:38.709Z,12.03
2022-12-20T14:28:20.082Z,12.03
2022-12-20T14:30:54.231Z,12.02
2022-12-20T14:33:29.720Z,12.01
2022-12-20T14:35:57.527Z,12.00
2022-12-20T14:38:30.457Z,12.00
2022-12-20T14:40:58.530Z,11.98
2022-12-20T14:43:29.211Z,11.98
2022-12-20T14:46:22.454Z,11.97
2022-12-20T14:48:50.572Z,11.93
2022-12-20T14:51:21.913Z,11.92
2022-12-20T14:53:53.253Z,11.91
2022-12-20T14:56:29.702Z,11.90
2022-12-20T14:59:06.415Z,11.84
2022-12-20T15:01:41.699Z,11.81
2022-12-20T15:04:23.370Z,11.78
2022-12-20T15:06:52.503Z,11.75
2022-12-20T15:09:20.979Z,11.74
2022-12-20T15:11:51.518Z,11.70
2022-12-20T15:14:36.362Z,11.69
2022-12-20T15:17:11.418Z,11.66
2022-12-20T15:19:42.522Z,11.63
2022-12-20T15:22:16.563Z,11.57
2022-12-20T15:24:44.406Z,11.52
2022-12-20T15:27:14.512Z,11.44
2022-12-20T15:29:43.291Z,11.35
2022-12-20T15:32:22.393Z,11.26
2022-12-20T15:34:50.190Z,11.19
2022-12-20T15:37:19.116Z,11.14
2022-12-20T15:39:47.041Z,11.10
2022-12-20T15:42:18.964Z,11.05
2022-12-20T15:44:47.481Z,10.97
2022-12-20T15:47:17.929Z,10.90
2022-12-20T15:49:50.181Z,10.87
2022-12-20T15:52:21.621Z,10.83
2022-12-20T15:54:50.114Z,10.80
2022-12-20T15:57:17.853Z,10.77
2022-12-20T16:00:03.184Z,10.75
2022-12-20T16:02:40.665Z,10.70
2022-12-20T16:05:13.551Z,10.68
2022-12-20T16:07:41.627Z,10.66
2022-12-20T16:10:14.328Z,10.63
2022-12-20T16:12:42.948Z,10.58
2022-12-20T16:15:20.764Z,10.57
2022-12-20T16:17:49.998Z,10.54
2022-12-20T16:20:17.908Z,10.52
2022-12-20T16:22:45.916Z,10.52
2022-12-20T16:25:24.944Z,10.48
2022-12-20T16:27:52.806Z,10.46
2022-12-20T16:30:20.698Z,10.42
2022-12-20T16:32:50.485Z,10.40
2022-12-20T16:35:25.373Z,10.39
2022-12-20T16:37:53.096Z,10.39
2022-12-20T16:40:22.146Z,10.39
2022-12-20T16:42:50.071Z,10.37
2022-12-20T16:45:19.900Z,10.37
2022-12-20T16:47:50.314Z,10.35
2022-12-20T16:50:19.717Z,10.33
2022-12-20T16:52:48.079Z,10.33
2022-12-20T16:55:20.321Z,10.31
2022-12-20T16:57:48.116Z,10.29
2022-12-20T17:00:21.376Z,10.29
2022-12-20T17:02:51.571Z,10.27
2022-12-20T17:05:25.736Z,10.27
2022-12-20T17:07:53.450Z,10.27
2022-12-20T17:10:21.384Z,10.27
2022-12-20T17:12:49.491Z,10.26
2022-12-20T17:15:22.852Z,10.27
2022-12-20T17:17:52.881Z,10.24
2022-12-20T17:20:21.767Z,10.26
2022-12-20T17:22:50.719Z,10.24
2022-12-20T17:25:21.171Z,10.24
2022-12-20T17:27:48.874Z,10.24
2022-12-20T17:30:16.898Z,10.24
2022-12-20T17:32:47.335Z,10.22
2022-12-20T17:35:22.886Z,10.21
2022-12-20T17:37:52.173Z,10.21
2022-12-20T17:40:20.035Z,10.23
2022-12-20T17:42:47.701Z,10.24
2022-12-20T17:45:28.867Z,10.24
2022-12-20T17:47:58.308Z,10.26
2022-12-20T17:50:27.709Z,10.28
2022-12-20T17:52:55.766Z,10.26
2022-12-20T17:55:26.097Z,10.27
2022-12-20T17:57:54.983Z,10.27
2022-12-20T18:00:34.507Z,10.26
2022-12-20T18:03:06.261Z,10.25
2022-12-20T18:05:35.363Z,10.24
2022-12-20T18:08:03.351Z,10.25
2022-12-20T18:10:31.253Z,10.25
2022-12-20T18:12:58.964Z,10.23
2022-12-20T18:15:26.614Z,10.24
2022-12-20T18:17:54.340Z,10.22
2022-12-20T18:20:22.069Z,10.23
2022-12-20T18:22:51.098Z,10.22
2022-12-20T18:25:20.923Z,10.24
2022-12-20T18:27:48.592Z,10.23
2022-12-20T18:30:16.434Z,10.22
2022-12-20T18:32:44.131Z,10.25
2022-12-20T18:35:11.831Z,10.24
2022-12-20T18:37:39.552Z,10.24
2022-12-20T18:40:10.101Z,10.24
2022-12-20T18:42:37.886Z,10.26
2022-12-20T18:45:06.617Z,10.26
2022-12-20T18:47:35.204Z,10.28
2022-12-20T18:50:02.938Z,10.28
2022-12-20T18:52:30.685Z,10.28
2022-12-20T18:54:58.432Z,10.28
2022-12-20T18:57:27.469Z,10.27
2022-12-20T18:59:55.179Z,10.25
2022-12-20T19:02:23.100Z,10.27
2022-12-20T19:04:50.959Z,10.26
2022-12-20T19:07:18.651Z,10.26
2022-12-20T19:09:46.441Z,10.25
2022-12-20T19:12:14.108Z,10.23
2022-12-20T19:14:43.154Z,10.22
2022-12-20T19:17:10.896Z,10.22
2022-12-20T19:19:38.571Z,10.20
2022-12-20T19:22:06.252Z,10.18
2022-12-20T19:24:33.998Z,10.15
2022-12-20T19:27:01.714Z,10.15
2022-12-20T19:29:29.464Z,10.12
2022-12-20T19:31:58.514Z,10.11
2022-12-20T19:34:26.151Z,10.12
2022-12-20T19:36:53.877Z,10.09
2022-12-20T19:39:23.563Z,10.07
2022-12-20T19:42:22.182Z,10.06
2022-12-20T19:44:40.310Z,10.05
2022-12-20T19:47:09.471Z,10.04
2022-12-20T19:49:37.180Z,10.05
2022-12-20T19:52:05.628Z,10.05
2022-12-20T19:54:33.449Z,10.04
2022-12-20T19:57:01.077Z,10.02
2022-12-20T19:59:30.201Z,10.03
2022-12-20T20:01:58.128Z,10.03
2022-12-20T20:04:28.355Z,10.02
2022-12-20T20:06:57.295Z,10.03
2022-12-20T20:09:25.219Z,10.03
2022-12-20T20:11:52.886Z,10.03
2022-12-20T20:14:20.586Z,10.03
2022-12-20T20:16:48.483Z,10.03
2022-12-20T20:19:16.164Z,10.05
2022-12-20T20:21:45.343Z,10.04
2022-12-20T20:24:13.101Z,10.03
2022-12-20T20:26:40.872Z,10.03
2022-12-20T20:29:10.328Z,10.05
2022-12-20T20:31:38.564Z,10.04
2022-12-20T20:34:06.357Z,10.04
2022-12-20T20:36:34.029Z,10.04
2022-12-20T20:39:03.084Z,10.04
2022-12-20T20:41:31.185Z,10.05
2022-12-20T20:43:58.906Z,10.05
2022-12-20T20:46:26.721Z,10.06
2022-12-20T20:48:54.560Z,10.09
2022-12-20T20:51:22.321Z,10.10
2022-12-20T20:53:50.009Z,10.09
2022-12-20T20:56:19.097Z,10.07
2022-12-20T20:58:46.887Z,10.07
2022-12-20T21:01:15.138Z,10.08
2022-12-20T21:03:42.878Z,10.08
2022-12-20T21:08:58.627Z,10.08
2022-12-20T21:11:28.595Z,10.08
2022-12-20T21:13:56.570Z,10.06
2022-12-20T21:16:24.432Z,10.06
2022-12-20T21:18:52.778Z,10.06
2022-12-20T21:21:21.287Z,10.07
2022-12-20T21:23:49.543Z,10.07
2022-12-20T21:26:18.547Z,10.08
2022-12-20T21:28:47.622Z,10.06
2022-12-20T21:31:17.920Z,10.07
2022-12-20T21:33:46.798Z,10.06
2022-12-20T21:36:17.400Z,10.08
2022-12-20T21:38:48.757Z,10.07
2022-12-20T21:41:17.131Z,10.08
2022-12-20T21:43:45.019Z,10.03
2022-12-20T21:46:14.127Z,10.03
2022-12-20T21:48:43.571Z,10.03
2022-12-20T21:51:12.976Z,10.01
2022-12-20T21:53:43.463Z,9.98
2022-12-20T21:56:12.047Z,9.98
2022-12-20T21:58:39.961Z,9.98
2022-12-20T22:01:08.858Z,9.97
2022-12-20T22:03:39.151Z,9.98
2022-12-20T22:06:07.468Z,9.99
2022-12-20T22:08:35.391Z,10.02
2022-12-20T22:11:04.747Z,10.02
2022-12-20T22:13:39.092Z,10.04
2022-12-20T22:16:10.626Z,10.04
2022-12-20T22:18:40.779Z,10.05
2022-12-20T22:21:10.242Z,10.07
2022-12-20T22:23:38.465Z,10.07
2022-12-20T22:26:07.723Z,10.07
2022-12-20T22:28:35.535Z,10.08
2022-12-20T22:31:08.541Z,10.07
2022-12-20T22:33:36.582Z,10.07
2022-12-20T22:36:06.789Z,10.06
2022-12-20T22:38:34.839Z,10.06
2022-12-20T22:41:08.530Z,10.06
2022-12-20T22:43:37.452Z,10.06
2022-12-20T22:46:06.083Z,10.08
2022-12-20T22:48:34.312Z,10.07
2022-12-20T22:51:03.494Z,10.07
2022-12-20T22:53:33.362Z,10.08
2022-12-20T22:56:01.696Z,10.06
2022-12-20T22:58:30.262Z,10.05
2022-12-20T23:00:58.785Z,10.07
2022-12-20T23:03:27.398Z,10.07
2022-12-20T23:05:56.787Z,10.06
2022-12-20T23:08:25.715Z,10.08
2022-12-20T23:11:12.401Z,10.09
2022-12-20T23:13:57.723Z,10.10
2022-12-20T23:16:25.875Z,10.12
2022-12-20T23:18:55.216Z,10.12
2022-12-20T23:21:41.157Z,10.12
2022-12-20T23:24:09.283Z,10.12
2022-12-20T23:26:40.325Z,10.13
2022-12-20T23:29:09.411Z,10.13
2022-12-20T23:31:37.376Z,10.11
2022-12-20T23:34:05.810Z,10.09
2022-12-20T23:36:34.143Z,10.10
2022-12-20T23:39:02.416Z,10.09
2022-12-20T23:41:30.229Z,10.09
2022-12-20T23:43:59.400Z,10.08
2022-12-20T23:46:27.831Z,10.09
2022-12-20T23:48:55.619Z,10.09
2022-12-20T23:51:23.414Z,10.09
2022-12-20T23:53:52.642Z,10.09
2022-12-20T23:56:22.915Z,10.11
2022-12-20T23:58:55.405Z,10.10
